sensor_id;sensor_type;location;lat;lon;timestamp;P1;durP1;ratioP1;P2;durP2;ratioP2
75316;SDS011;63913;51.492;10.368;2024-01-11T00:02:16;22.08;;;8.07;;
75316;SDS011;63913;51.492;10.368;2024-01-11T00:04:42;18.83;;;7.03;;
75316;SDS011;63913;51.492;10.368;2024-01-11T00:07:09;22.10;;;7.07;;
75316;SDS011;63913;51.492;10.368;2024-01-11T00:09:38;18.65;;;6.68;;
75316;SDS011;63913;51.492;10.368;2024-01-11T00:12:07;20.83;;;7.90;;
75316;SDS011;63913;51.492;10.368;2024-01-11T00:14:33;27.48;;;7.90;;
75316;SDS011;63913;51.492;10.368;2024-01-11T00:16:58;28.15;;;7.30;;
75316;SDS011;63913;51.492;10.368;2024-01-11T00:19:24;16.33;;;6.37;;
75316;SDS011;63913;51.492;10.368;2024-01-11T00:21:49;16.23;;;6.50;;
75316;SDS011;63913;51.492;10.368;2024-01-11T00:24:14;22.73;;;7.75;;
75316;SDS011;63913;51.492;10.368;2024-01-11T00:26:40;20.13;;;7.03;;
75316;SDS011;63913;51.492;10.368;2024-01-11T00:29:06;16.13;;;6.60;;
75316;SDS011;63913;51.492;10.368;2024-01-11T00:31:32;21.95;;;6.68;;
75316;SDS011;63913;51.492;10.368;2024-01-11T00:33:58;19.15;;;6.55;;
75316;SDS011;63913;51.492;10.368;2024-01-11T00:36:23;20.17;;;6.75;;
75316;SDS011;63913;51.492;10.368;2024-01-11T00:38:49;19.10;;;6.40;;
75316;SDS011;63913;51.492;10.368;2024-01-11T00:41:14;21.63;;;6.40;;
75316;SDS011;63913;51.492;10.368;2024-01-11T00:43:39;23.13;;;7.20;;
75316;SDS011;63913;51.492;10.368;2024-01-11T00:46:05;18.20;;;6.38;;
75316;SDS011;63913;51.492;10.368;2024-01-11T00:48:30;19.58;;;6.78;;
75316;SDS011;63913;51.492;10.368;2024-01-11T00:50:56;25.27;;;6.50;;
75316;SDS011;63913;51.492;10.368;2024-01-11T00:53:21;15.67;;;5.77;;
75316;SDS011;63913;51.492;10.368;2024-01-11T00:55:46;17.37;;;6.33;;
75316;SDS011;63913;51.492;10.368;2024-01-11T00:58:12;19.88;;;6.50;;
75316;SDS011;63913;51.492;10.368;2024-01-11T01:00:37;25.65;;;6.78;;
75316;SDS011;63913;51.492;10.368;2024-01-11T01:03:03;18.77;;;6.88;;
75316;SDS011;63913;51.492;10.368;2024-01-11T01:05:28;16.13;;;6.30;;
75316;SDS011;63913;51.492;10.368;2024-01-11T01:07:54;15.82;;;5.47;;
75316;SDS011;63913;51.492;10.368;2024-01-11T01:10:19;18.45;;;6.80;;
75316;SDS011;63913;51.492;10.368;2024-01-11T01:12:44;15.88;;;6.22;;
75316;SDS011;63913;51.492;10.368;2024-01-11T01:15:11;20.00;;;7.45;;
75316;SDS011;63913;51.492;10.368;2024-01-11T01:17:37;23.98;;;7.45;;
75316;SDS011;63913;51.492;10.368;2024-01-11T01:20:02;25.52;;;6.95;;
75316;SDS011;63913;51.492;10.368;2024-01-11T01:22:28;18.05;;;6.13;;
75316;SDS011;63913;51.492;10.368;2024-01-11T01:24:53;19.15;;;7.15;;
75316;SDS011;63913;51.492;10.368;2024-01-11T01:27:19;18.95;;;5.82;;
75316;SDS011;63913;51.492;10.368;2024-01-11T01:29:44;21.20;;;6.87;;
75316;SDS011;63913;51.492;10.368;2024-01-11T01:32:09;19.43;;;6.43;;
75316;SDS011;63913;51.492;10.368;2024-01-11T01:34:35;18.35;;;5.93;;
75316;SDS011;63913;51.492;10.368;2024-01-11T01:37:00;19.07;;;6.10;;
75316;SDS011;63913;51.492;10.368;2024-01-11T01:39:25;20.77;;;6.35;;
75316;SDS011;63913;51.492;10.368;2024-01-11T01:41:51;18.43;;;5.80;;
75316;SDS011;63913;51.492;10.368;2024-01-11T01:44:16;18.13;;;6.25;;
75316;SDS011;63913;51.492;10.368;2024-01-11T01:46:41;18.30;;;6.68;;
75316;SDS011;63913;51.492;10.368;2024-01-11T01:49:07;16.52;;;6.25;;
75316;SDS011;63913;51.492;10.368;2024-01-11T01:51:32;20.23;;;7.10;;
75316;SDS011;63913;51.492;10.368;2024-01-11T01:53:59;21.75;;;5.88;;
75316;SDS011;63913;51.492;10.368;2024-01-11T01:56:27;15.50;;;5.70;;
75316;SDS011;63913;51.492;10.368;2024-01-11T01:58:53;18.35;;;7.10;;
75316;SDS011;63913;51.492;10.368;2024-01-11T02:01:19;19.73;;;6.05;;
75316;SDS011;63913;51.492;10.368;2024-01-11T02:03:45;19.27;;;6.20;;
75316;SDS011;63913;51.492;10.368;2024-01-11T02:06:11;20.13;;;5.57;;
75316;SDS011;63913;51.492;10.368;2024-01-11T02:08:39;19.40;;;5.60;;
75316;SDS011;63913;51.492;10.368;2024-01-11T02:11:07;19.75;;;6.38;;
75316;SDS011;63913;51.492;10.368;2024-01-11T02:13:32;26.08;;;7.28;;
75316;SDS011;63913;51.492;10.368;2024-01-11T02:15:58;19.67;;;6.60;;
75316;SDS011;63913;51.492;10.368;2024-01-11T02:18:23;16.58;;;5.85;;
75316;SDS011;63913;51.492;10.368;2024-01-11T02:20:48;19.83;;;5.80;;
75316;SDS011;63913;51.492;10.368;2024-01-11T02:23:17;20.83;;;6.13;;
75316;SDS011;63913;51.492;10.368;2024-01-11T02:25:46;15.65;;;6.07;;
75316;SDS011;63913;51.492;10.368;2024-01-11T02:28:11;23.50;;;6.78;;
75316;SDS011;63913;51.492;10.368;2024-01-11T02:30:37;24.63;;;7.03;;
75316;SDS011;63913;51.492;10.368;2024-01-11T02:33:02;19.52;;;6.38;;
75316;SDS011;63913;51.492;10.368;2024-01-11T02:35:29;19.05;;;5.63;;
75316;SDS011;63913;51.492;10.368;2024-01-11T02:37:55;19.13;;;5.80;;
75316;SDS011;63913;51.492;10.368;2024-01-11T02:40:22;18.77;;;7.07;;
75316;SDS011;63913;51.492;10.368;2024-01-11T02:42:48;19.70;;;6.35;;
75316;SDS011;63913;51.492;10.368;2024-01-11T02:45:13;23.55;;;6.50;;
75316;SDS011;63913;51.492;10.368;2024-01-11T02:47:39;18.08;;;6.22;;
75316;SDS011;63913;51.492;10.368;2024-01-11T02:50:05;16.40;;;5.35;;
75316;SDS011;63913;51.492;10.368;2024-01-11T02:52:32;21.90;;;5.90;;
75316;SDS011;63913;51.492;10.368;2024-01-11T02:54:58;25.15;;;6.40;;
75316;SDS011;63913;51.492;10.368;2024-01-11T02:57:23;19.50;;;6.20;;
75316;SDS011;63913;51.492;10.368;2024-01-11T02:59:49;22.30;;;6.57;;
75316;SDS011;63913;51.492;10.368;2024-01-11T03:02:16;16.30;;;5.82;;
75316;SDS011;63913;51.492;10.368;2024-01-11T03:04:42;21.65;;;5.95;;
75316;SDS011;63913;51.492;10.368;2024-01-11T03:07:07;17.55;;;5.35;;
75316;SDS011;63913;51.492;10.368;2024-01-11T03:09:32;22.30;;;6.38;;
75316;SDS011;63913;51.492;10.368;2024-01-11T03:11:59;20.75;;;6.95;;
75316;SDS011;63913;51.492;10.368;2024-01-11T03:14:24;21.35;;;7.07;;
75316;SDS011;63913;51.492;10.368;2024-01-11T03:16:50;19.23;;;6.27;;
75316;SDS011;63913;51.492;10.368;2024-01-11T03:19:15;12.73;;;5.70;;
75316;SDS011;63913;51.492;10.368;2024-01-11T03:21:43;19.73;;;6.53;;
75316;SDS011;63913;51.492;10.368;2024-01-11T03:24:09;26.75;;;8.15;;
75316;SDS011;63913;51.492;10.368;2024-01-11T03:26:34;18.85;;;5.95;;
75316;SDS011;63913;51.492;10.368;2024-01-11T03:29:00;16.25;;;5.90;;
75316;SDS011;63913;51.492;10.368;2024-01-11T03:31:25;19.77;;;5.60;;
75316;SDS011;63913;51.492;10.368;2024-01-11T03:33:51;20.38;;;6.82;;
75316;SDS011;63913;51.492;10.368;2024-01-11T03:36:16;20.65;;;6.30;;
75316;SDS011;63913;51.492;10.368;2024-01-11T03:38:41;20.40;;;6.55;;
75316;SDS011;63913;51.492;10.368;2024-01-11T03:41:07;21.90;;;6.70;;
75316;SDS011;63913;51.492;10.368;2024-01-11T03:43:36;20.50;;;8.20;;
75316;SDS011;63913;51.492;10.368;2024-01-11T03:46:02;15.00;;;6.35;;
75316;SDS011;63913;51.492;10.368;2024-01-11T03:48:28;19.42;;;6.63;;
75316;SDS011;63913;51.492;10.368;2024-01-11T03:50:53;18.52;;;5.85;;
75316;SDS011;63913;51.492;10.368;2024-01-11T03:53:18;20.42;;;6.68;;
75316;SDS011;63913;51.492;10.368;2024-01-11T03:55:44;17.60;;;6.13;;
75316;SDS011;63913;51.492;10.368;2024-01-11T03:58:09;22.03;;;7.20;;
75316;SDS011;63913;51.492;10.368;2024-01-11T04:00:34;19.53;;;6.47;;
75316;SDS011;63913;51.492;10.368;2024-01-11T04:03:00;27.43;;;7.23;;
75316;SDS011;63913;51.492;10.368;2024-01-11T04:05:26;17.73;;;6.57;;
75316;SDS011;63913;51.492;10.368;2024-01-11T04:07:52;15.35;;;6.28;;
75316;SDS011;63913;51.492;10.368;2024-01-11T04:10:18;21.80;;;7.40;;
75316;SDS011;63913;51.492;10.368;2024-01-11T04:12:43;18.75;;;6.63;;
75316;SDS011;63913;51.492;10.368;2024-01-11T04:15:11;17.15;;;6.82;;
75316;SDS011;63913;51.492;10.368;2024-01-11T04:17:38;22.80;;;6.65;;
75316;SDS011;63913;51.492;10.368;2024-01-11T04:20:03;20.77;;;6.45;;
75316;SDS011;63913;51.492;10.368;2024-01-11T04:22:29;21.70;;;7.38;;
75316;SDS011;63913;51.492;10.368;2024-01-11T04:24:55;19.83;;;7.03;;
75316;SDS011;63913;51.492;10.368;2024-01-11T04:27:20;16.27;;;6.43;;
75316;SDS011;63913;51.492;10.368;2024-01-11T04:29:46;25.25;;;8.27;;
75316;SDS011;63913;51.492;10.368;2024-01-11T04:32:11;26.27;;;8.55;;
75316;SDS011;63913;51.492;10.368;2024-01-11T04:34:36;26.98;;;8.48;;
75316;SDS011;63913;51.492;10.368;2024-01-11T04:37:02;23.52;;;7.65;;
75316;SDS011;63913;51.492;10.368;2024-01-11T04:39:27;21.48;;;6.43;;
75316;SDS011;63913;51.492;10.368;2024-01-11T04:41:53;19.97;;;7.17;;
75316;SDS011;63913;51.492;10.368;2024-01-11T04:44:18;22.83;;;7.25;;
75316;SDS011;63913;51.492;10.368;2024-01-11T04:46:43;17.90;;;6.33;;
75316;SDS011;63913;51.492;10.368;2024-01-11T04:49:09;19.73;;;7.20;;
75316;SDS011;63913;51.492;10.368;2024-01-11T04:51:34;24.90;;;6.93;;
75316;SDS011;63913;51.492;10.368;2024-01-11T04:53:59;21.02;;;7.13;;
75316;SDS011;63913;51.492;10.368;2024-01-11T04:56:25;16.90;;;6.85;;
75316;SDS011;63913;51.492;10.368;2024-01-11T04:58:51;21.27;;;6.40;;
75316;SDS011;63913;51.492;10.368;2024-01-11T05:01:16;22.20;;;6.55;;
75316;SDS011;63913;51.492;10.368;2024-01-11T05:03:46;16.20;;;6.28;;
75316;SDS011;63913;51.492;10.368;2024-01-11T05:06:15;22.50;;;7.28;;
75316;SDS011;63913;51.492;10.368;2024-01-11T05:08:41;17.45;;;6.28;;
75316;SDS011;63913;51.492;10.368;2024-01-11T05:11:07;21.25;;;6.75;;
75316;SDS011;63913;51.492;10.368;2024-01-11T05:13:32;21.30;;;7.80;;
75316;SDS011;63913;51.492;10.368;2024-01-11T05:15:57;19.70;;;7.43;;
75316;SDS011;63913;51.492;10.368;2024-01-11T05:18:23;18.08;;;6.18;;
75316;SDS011;63913;51.492;10.368;2024-01-11T05:20:48;21.95;;;6.95;;
75316;SDS011;63913;51.492;10.368;2024-01-11T05:23:13;21.98;;;6.10;;
75316;SDS011;63913;51.492;10.368;2024-01-11T05:25:39;16.80;;;7.03;;
75316;SDS011;63913;51.492;10.368;2024-01-11T05:28:04;21.10;;;6.47;;
75316;SDS011;63913;51.492;10.368;2024-01-11T05:30:30;24.17;;;7.13;;
75316;SDS011;63913;51.492;10.368;2024-01-11T05:32:55;28.02;;;8.13;;
75316;SDS011;63913;51.492;10.368;2024-01-11T05:35:21;21.60;;;6.40;;
75316;SDS011;63913;51.492;10.368;2024-01-11T05:37:49;18.10;;;6.90;;
75316;SDS011;63913;51.492;10.368;2024-01-11T05:40:15;24.88;;;7.25;;
75316;SDS011;63913;51.492;10.368;2024-01-11T05:42:40;22.80;;;7.50;;
75316;SDS011;63913;51.492;10.368;2024-01-11T05:45:06;22.60;;;6.50;;
75316;SDS011;63913;51.492;10.368;2024-01-11T05:47:31;22.48;;;7.35;;
75316;SDS011;63913;51.492;10.368;2024-01-11T05:49:57;25.38;;;7.47;;
75316;SDS011;63913;51.492;10.368;2024-01-11T05:52:22;20.85;;;6.80;;
75316;SDS011;63913;51.492;10.368;2024-01-11T05:54:48;17.42;;;5.90;;
75316;SDS011;63913;51.492;10.368;2024-01-11T05:57:13;20.77;;;6.70;;
75316;SDS011;63913;51.492;10.368;2024-01-11T05:59:43;22.73;;;6.80;;
75316;SDS011;63913;51.492;10.368;2024-01-11T06:02:09;15.77;;;6.05;;
75316;SDS011;63913;51.492;10.368;2024-01-11T06:04:35;17.73;;;6.72;;
75316;SDS011;63913;51.492;10.368;2024-01-11T06:07:01;22.70;;;7.15;;
75316;SDS011;63913;51.492;10.368;2024-01-11T06:09:26;26.08;;;7.43;;
75316;SDS011;63913;51.492;10.368;2024-01-11T06:11:51;17.40;;;6.93;;
75316;SDS011;63913;51.492;10.368;2024-01-11T06:14:17;23.47;;;7.77;;
75316;SDS011;63913;51.492;10.368;2024-01-11T06:16:42;29.08;;;7.95;;
75316;SDS011;63913;51.492;10.368;2024-01-11T06:19:07;26.20;;;7.85;;
75316;SDS011;63913;51.492;10.368;2024-01-11T06:21:34;19.38;;;7.70;;
75316;SDS011;63913;51.492;10.368;2024-01-11T06:23:59;21.83;;;7.05;;
75316;SDS011;63913;51.492;10.368;2024-01-11T06:26:25;19.07;;;7.03;;
75316;SDS011;63913;51.492;10.368;2024-01-11T06:28:50;19.88;;;7.38;;
75316;SDS011;63913;51.492;10.368;2024-01-11T06:31:15;20.92;;;8.18;;
75316;SDS011;63913;51.492;10.368;2024-01-11T06:33:42;14.82;;;6.75;;
75316;SDS011;63913;51.492;10.368;2024-01-11T06:36:08;19.73;;;7.47;;
75316;SDS011;63913;51.492;10.368;2024-01-11T06:38:33;21.10;;;7.63;;
75316;SDS011;63913;51.492;10.368;2024-01-11T06:40:59;22.10;;;6.87;;
75316;SDS011;63913;51.492;10.368;2024-01-11T06:43:24;30.90;;;7.90;;
75316;SDS011;63913;51.492;10.368;2024-01-11T06:45:50;24.50;;;8.27;;
75316;SDS011;63913;51.492;10.368;2024-01-11T06:48:15;19.40;;;6.60;;
75316;SDS011;63913;51.492;10.368;2024-01-11T06:50:41;25.20;;;6.85;;
75316;SDS011;63913;51.492;10.368;2024-01-11T06:53:06;17.58;;;5.93;;
75316;SDS011;63913;51.492;10.368;2024-01-11T06:55:32;22.67;;;7.50;;
75316;SDS011;63913;51.492;10.368;2024-01-11T06:57:57;21.27;;;7.37;;
75316;SDS011;63913;51.492;10.368;2024-01-11T07:00:23;24.17;;;7.40;;
75316;SDS011;63913;51.492;10.368;2024-01-11T07:02:48;19.85;;;7.15;;
75316;SDS011;63913;51.492;10.368;2024-01-11T07:05:13;26.47;;;7.57;;
75316;SDS011;63913;51.492;10.368;2024-01-11T07:07:39;24.25;;;7.43;;
75316;SDS011;63913;51.492;10.368;2024-01-11T07:10:04;17.60;;;6.50;;
75316;SDS011;63913;51.492;10.368;2024-01-11T07:12:30;20.48;;;7.70;;
75316;SDS011;63913;51.492;10.368;2024-01-11T07:14:57;24.20;;;9.18;;
75316;SDS011;63913;51.492;10.368;2024-01-11T07:17:22;29.05;;;9.23;;
75316;SDS011;63913;51.492;10.368;2024-01-11T07:19:48;21.50;;;7.95;;
75316;SDS011;63913;51.492;10.368;2024-01-11T07:22:14;22.13;;;8.02;;
75316;SDS011;63913;51.492;10.368;2024-01-11T07:24:39;23.17;;;8.52;;
75316;SDS011;63913;51.492;10.368;2024-01-11T07:27:05;19.27;;;7.43;;
75316;SDS011;63913;51.492;10.368;2024-01-11T07:29:30;23.58;;;7.47;;
75316;SDS011;63913;51.492;10.368;2024-01-11T07:31:56;21.92;;;7.63;;
75316;SDS011;63913;51.492;10.368;2024-01-11T07:34:22;22.15;;;7.72;;
75316;SDS011;63913;51.492;10.368;2024-01-11T07:36:47;28.00;;;8.45;;
75316;SDS011;63913;51.492;10.368;2024-01-11T07:39:12;36.05;;;11.20;;
75316;SDS011;63913;51.492;10.368;2024-01-11T07:41:38;26.48;;;9.02;;
75316;SDS011;63913;51.492;10.368;2024-01-11T07:44:06;19.67;;;8.55;;
75316;SDS011;63913;51.492;10.368;2024-01-11T07:46:31;23.23;;;8.70;;
75316;SDS011;63913;51.492;10.368;2024-01-11T07:48:56;25.98;;;9.15;;
75316;SDS011;63913;51.492;10.368;2024-01-11T07:51:22;30.33;;;9.63;;
75316;SDS011;63913;51.492;10.368;2024-01-11T07:53:47;27.77;;;9.10;;
75316;SDS011;63913;51.492;10.368;2024-01-11T07:56:12;24.60;;;7.57;;
75316;SDS011;63913;51.492;10.368;2024-01-11T07:58:39;24.75;;;8.10;;
75316;SDS011;63913;51.492;10.368;2024-01-11T08:01:06;18.35;;;6.90;;
75316;SDS011;63913;51.492;10.368;2024-01-11T08:03:32;25.75;;;8.63;;
75316;SDS011;63913;51.492;10.368;2024-01-11T08:05:59;33.72;;;14.55;;
75316;SDS011;63913;51.492;10.368;2024-01-11T08:08:25;32.05;;;11.32;;
75316;SDS011;63913;51.492;10.368;2024-01-11T08:10:51;29.35;;;11.35;;
75316;SDS011;63913;51.492;10.368;2024-01-11T08:13:16;26.92;;;10.65;;
75316;SDS011;63913;51.492;10.368;2024-01-11T08:15:43;21.15;;;10.10;;
75316;SDS011;63913;51.492;10.368;2024-01-11T08:18:08;31.75;;;10.25;;
75316;SDS011;63913;51.492;10.368;2024-01-11T08:20:34;25.10;;;8.75;;
75316;SDS011;63913;51.492;10.368;2024-01-11T08:23:00;23.88;;;9.40;;
75316;SDS011;63913;51.492;10.368;2024-01-11T08:25:25;25.25;;;9.40;;
75316;SDS011;63913;51.492;10.368;2024-01-11T08:27:51;37.17;;;10.20;;
75316;SDS011;63913;51.492;10.368;2024-01-11T08:30:16;27.77;;;9.02;;
75316;SDS011;63913;51.492;10.368;2024-01-11T08:32:41;32.10;;;10.90;;
75316;SDS011;63913;51.492;10.368;2024-01-11T08:35:11;32.92;;;10.63;;
75316;SDS011;63913;51.492;10.368;2024-01-11T08:37:37;36.75;;;11.32;;
75316;SDS011;63913;51.492;10.368;2024-01-11T08:40:03;30.52;;;9.82;;
75316;SDS011;63913;51.492;10.368;2024-01-11T08:42:32;28.63;;;9.90;;
75316;SDS011;63913;51.492;10.368;2024-01-11T08:44:57;35.83;;;10.18;;
75316;SDS011;63913;51.492;10.368;2024-01-11T08:47:23;30.83;;;9.70;;
75316;SDS011;63913;51.492;10.368;2024-01-11T08:49:48;24.93;;;8.07;;
75316;SDS011;63913;51.492;10.368;2024-01-11T08:52:14;29.65;;;9.40;;
75316;SDS011;63913;51.492;10.368;2024-01-11T08:54:39;30.85;;;11.60;;
75316;SDS011;63913;51.492;10.368;2024-01-11T08:57:05;43.25;;;11.90;;
75316;SDS011;63913;51.492;10.368;2024-01-11T08:59:31;54.17;;;14.90;;
75316;SDS011;63913;51.492;10.368;2024-01-11T09:01:56;76.37;;;20.40;;
75316;SDS011;63913;51.492;10.368;2024-01-11T09:04:21;69.47;;;20.77;;
75316;SDS011;63913;51.492;10.368;2024-01-11T09:06:47;65.30;;;19.35;;
75316;SDS011;63913;51.492;10.368;2024-01-11T09:09:12;79.78;;;22.02;;
75316;SDS011;63913;51.492;10.368;2024-01-11T09:11:39;78.32;;;21.02;;
75316;SDS011;63913;51.492;10.368;2024-01-11T09:14:08;52.63;;;15.60;;
75316;SDS011;63913;51.492;10.368;2024-01-11T09:16:37;56.15;;;15.57;;
75316;SDS011;63913;51.492;10.368;2024-01-11T09:19:04;44.33;;;14.88;;
75316;SDS011;63913;51.492;10.368;2024-01-11T09:21:30;39.20;;;13.60;;
75316;SDS011;63913;51.492;10.368;2024-01-11T09:23:55;51.70;;;16.10;;
75316;SDS011;63913;51.492;10.368;2024-01-11T09:26:20;37.70;;;12.65;;
75316;SDS011;63913;51.492;10.368;2024-01-11T09:28:47;42.50;;;14.43;;
75316;SDS011;63913;51.492;10.368;2024-01-11T09:31:13;43.03;;;13.93;;
75316;SDS011;63913;51.492;10.368;2024-01-11T09:33:38;36.37;;;13.17;;
75316;SDS011;63913;51.492;10.368;2024-01-11T09:36:04;45.50;;;15.73;;
75316;SDS011;63913;51.492;10.368;2024-01-11T09:38:29;40.72;;;15.30;;
75316;SDS011;63913;51.492;10.368;2024-01-11T09:41:08;40.85;;;14.27;;
75316;SDS011;63913;51.492;10.368;2024-01-11T09:43:34;49.72;;;14.73;;
75316;SDS011;63913;51.492;10.368;2024-01-11T09:46:03;42.67;;;13.10;;
75316;SDS011;63913;51.492;10.368;2024-01-11T09:48:30;36.50;;;12.45;;
75316;SDS011;63913;51.492;10.368;2024-01-11T09:50:59;44.78;;;14.45;;
75316;SDS011;63913;51.492;10.368;2024-01-11T09:53:27;41.50;;;12.98;;
75316;SDS011;63913;51.492;10.368;2024-01-11T09:55:53;36.65;;;12.15;;
75316;SDS011;63913;51.492;10.368;2024-01-11T09:58:20;37.53;;;12.40;;
75316;SDS011;63913;51.492;10.368;2024-01-11T10:00:47;33.75;;;11.35;;
75316;SDS011;63913;51.492;10.368;2024-01-11T10:03:18;39.30;;;13.13;;
75316;SDS011;63913;51.492;10.368;2024-01-11T10:05:44;32.47;;;10.23;;
75316;SDS011;63913;51.492;10.368;2024-01-11T10:08:11;31.40;;;11.00;;
75316;SDS011;63913;51.492;10.368;2024-01-11T10:10:37;34.90;;;11.07;;
75316;SDS011;63913;51.492;10.368;2024-01-11T10:13:02;33.70;;;11.43;;
75316;SDS011;63913;51.492;10.368;2024-01-11T10:15:28;31.67;;;9.93;;
75316;SDS011;63913;51.492;10.368;2024-01-11T10:17:53;34.13;;;10.98;;
75316;SDS011;63913;51.492;10.368;2024-01-11T10:20:18;33.63;;;12.05;;
75316;SDS011;63913;51.492;10.368;2024-01-11T10:22:48;37.22;;;9.40;;
75316;SDS011;63913;51.492;10.368;2024-01-11T10:25:15;33.63;;;11.27;;
75316;SDS011;63913;51.492;10.368;2024-01-11T10:27:42;38.35;;;11.75;;
75316;SDS011;63913;51.492;10.368;2024-01-11T10:30:10;41.40;;;12.65;;
75316;SDS011;63913;51.492;10.368;2024-01-11T10:32:38;41.00;;;12.60;;
75316;SDS011;63913;51.492;10.368;2024-01-11T10:35:07;43.35;;;12.77;;
75316;SDS011;63913;51.492;10.368;2024-01-11T10:37:32;38.92;;;13.30;;
75316;SDS011;63913;51.492;10.368;2024-01-11T10:40:00;29.98;;;10.60;;
75316;SDS011;63913;51.492;10.368;2024-01-11T10:42:29;36.60;;;11.73;;
75316;SDS011;63913;51.492;10.368;2024-01-11T10:44:56;36.80;;;11.88;;
75316;SDS011;63913;51.492;10.368;2024-01-11T10:47:24;31.42;;;10.68;;
75316;SDS011;63913;51.492;10.368;2024-01-11T10:49:55;29.45;;;10.25;;
75316;SDS011;63913;51.492;10.368;2024-01-11T10:52:22;30.25;;;10.27;;
75316;SDS011;63913;51.492;10.368;2024-01-11T10:57:19;33.50;;;10.00;;
75316;SDS011;63913;51.492;10.368;2024-01-11T10:59:45;28.20;;;9.25;;
75316;SDS011;63913;51.492;10.368;2024-01-11T11:02:13;30.40;;;9.77;;
75316;SDS011;63913;51.492;10.368;2024-01-11T11:04:40;29.98;;;9.38;;
75316;SDS011;63913;51.492;10.368;2024-01-11T11:07:07;26.45;;;8.75;;
75316;SDS011;63913;51.492;10.368;2024-01-11T11:09:34;25.83;;;7.93;;
75316;SDS011;63913;51.492;10.368;2024-01-11T11:12:00;22.33;;;7.97;;
75316;SDS011;63913;51.492;10.368;2024-01-11T11:14:25;25.00;;;8.20;;
75316;SDS011;63913;51.492;10.368;2024-01-11T11:16:53;23.25;;;8.35;;
75316;SDS011;63913;51.492;10.368;2024-01-11T11:19:19;25.20;;;8.65;;
75316;SDS011;63913;51.492;10.368;2024-01-11T11:21:46;29.63;;;8.85;;
75316;SDS011;63913;51.492;10.368;2024-01-11T11:24:13;22.52;;;7.97;;
75316;SDS011;63913;51.492;10.368;2024-01-11T11:26:39;27.05;;;8.90;;
75316;SDS011;63913;51.492;10.368;2024-01-11T11:29:05;22.15;;;8.45;;
75316;SDS011;63913;51.492;10.368;2024-01-11T11:31:38;30.67;;;9.85;;
75316;SDS011;63913;51.492;10.368;2024-01-11T11:34:07;29.80;;;9.65;;
75316;SDS011;63913;51.492;10.368;2024-01-11T11:36:33;25.98;;;8.77;;
75316;SDS011;63913;51.492;10.368;2024-01-11T11:39:00;26.88;;;9.10;;
75316;SDS011;63913;51.492;10.368;2024-01-11T11:41:27;25.33;;;8.98;;
75316;SDS011;63913;51.492;10.368;2024-01-11T11:43:52;20.58;;;7.55;;
75316;SDS011;63913;51.492;10.368;2024-01-11T11:46:18;21.52;;;7.97;;
75316;SDS011;63913;51.492;10.368;2024-01-11T11:48:48;23.38;;;8.73;;
75316;SDS011;63913;51.492;10.368;2024-01-11T11:53:45;24.52;;;8.40;;
75316;SDS011;63913;51.492;10.368;2024-01-11T11:56:12;20.90;;;8.20;;
75316;SDS011;63913;51.492;10.368;2024-01-11T11:58:40;21.40;;;7.68;;
75316;SDS011;63913;51.492;10.368;2024-01-11T12:01:05;21.90;;;8.02;;
75316;SDS011;63913;51.492;10.368;2024-01-11T12:03:37;26.48;;;7.82;;
75316;SDS011;63913;51.492;10.368;2024-01-11T12:06:06;21.10;;;8.43;;
75316;SDS011;63913;51.492;10.368;2024-01-11T12:08:33;21.33;;;8.35;;
75316;SDS011;63913;51.492;10.368;2024-01-11T12:10:59;26.83;;;8.60;;
75316;SDS011;63913;51.492;10.368;2024-01-11T12:13:25;24.58;;;8.35;;
75316;SDS011;63913;51.492;10.368;2024-01-11T12:15:50;23.55;;;8.75;;
75316;SDS011;63913;51.492;10.368;2024-01-11T12:18:16;21.52;;;7.88;;
75316;SDS011;63913;51.492;10.368;2024-01-11T12:20:41;21.55;;;7.60;;
75316;SDS011;63913;51.492;10.368;2024-01-11T12:23:07;25.23;;;9.15;;
75316;SDS011;63913;51.492;10.368;2024-01-11T12:25:32;22.83;;;8.48;;
75316;SDS011;63913;51.492;10.368;2024-01-11T12:27:58;31.27;;;9.63;;
75316;SDS011;63913;51.492;10.368;2024-01-11T12:30:26;30.65;;;10.55;;
75316;SDS011;63913;51.492;10.368;2024-01-11T12:32:52;26.67;;;8.57;;
75316;SDS011;63913;51.492;10.368;2024-01-11T12:35:18;24.80;;;8.32;;
75316;SDS011;63913;51.492;10.368;2024-01-11T12:38:00;23.98;;;8.18;;
75316;SDS011;63913;51.492;10.368;2024-01-11T12:40:31;23.15;;;8.98;;
75316;SDS011;63913;51.492;10.368;2024-01-11T12:42:57;22.50;;;8.40;;
75316;SDS011;63913;51.492;10.368;2024-01-11T12:45:24;25.65;;;7.97;;
75316;SDS011;63913;51.492;10.368;2024-01-11T12:47:54;22.85;;;8.15;;
75316;SDS011;63913;51.492;10.368;2024-01-11T12:50:22;22.58;;;8.63;;
75316;SDS011;63913;51.492;10.368;2024-01-11T12:53:04;20.48;;;7.35;;
75316;SDS011;63913;51.492;10.368;2024-01-11T12:55:46;21.45;;;7.57;;
75316;SDS011;63913;51.492;10.368;2024-01-11T12:58:12;20.48;;;7.47;;
75316;SDS011;63913;51.492;10.368;2024-01-11T13:00:38;22.98;;;8.70;;
75316;SDS011;63913;51.492;10.368;2024-01-11T13:03:04;25.90;;;8.95;;
75316;SDS011;63913;51.492;10.368;2024-01-11T13:05:30;24.52;;;8.30;;
75316;SDS011;63913;51.492;10.368;2024-01-11T13:08:07;29.40;;;9.18;;
75316;SDS011;63913;51.492;10.368;2024-01-11T13:10:34;20.02;;;9.05;;
75316;SDS011;63913;51.492;10.368;2024-01-11T13:13:00;27.88;;;10.00;;
75316;SDS011;63913;51.492;10.368;2024-01-11T13:15:26;27.48;;;8.40;;
75316;SDS011;63913;51.492;10.368;2024-01-11T13:17:52;27.35;;;8.82;;
75316;SDS011;63913;51.492;10.368;2024-01-11T13:20:18;23.52;;;8.25;;
75316;SDS011;63913;51.492;10.368;2024-01-11T13:22:44;20.17;;;7.57;;
75316;SDS011;63913;51.492;10.368;2024-01-11T13:25:09;21.57;;;8.07;;
75316;SDS011;63913;51.492;10.368;2024-01-11T13:27:34;24.80;;;8.63;;
75316;SDS011;63913;51.492;10.368;2024-01-11T13:30:00;28.30;;;9.65;;
75316;SDS011;63913;51.492;10.368;2024-01-11T13:32:25;26.60;;;9.45;;
75316;SDS011;63913;51.492;10.368;2024-01-11T13:34:51;23.23;;;8.83;;
75316;SDS011;63913;51.492;10.368;2024-01-11T13:37:18;19.55;;;7.40;;
75316;SDS011;63913;51.492;10.368;2024-01-11T13:39:44;19.70;;;8.00;;
75316;SDS011;63913;51.492;10.368;2024-01-11T13:42:10;23.77;;;8.25;;
75316;SDS011;63913;51.492;10.368;2024-01-11T13:44:36;21.08;;;8.07;;
75316;SDS011;63913;51.492;10.368;2024-01-11T13:47:01;20.40;;;7.38;;
75316;SDS011;63913;51.492;10.368;2024-01-11T13:49:27;21.40;;;6.88;;
75316;SDS011;63913;51.492;10.368;2024-01-11T13:51:52;22.55;;;8.00;;
75316;SDS011;63913;51.492;10.368;2024-01-11T13:54:18;23.40;;;8.97;;
75316;SDS011;63913;51.492;10.368;2024-01-11T13:56:43;22.27;;;7.40;;
75316;SDS011;63913;51.492;10.368;2024-01-11T13:59:09;23.25;;;7.70;;
75316;SDS011;63913;51.492;10.368;2024-01-11T14:01:34;21.40;;;7.90;;
75316;SDS011;63913;51.492;10.368;2024-01-11T14:03:59;20.33;;;8.17;;
75316;SDS011;63913;51.492;10.368;2024-01-11T14:06:25;18.83;;;8.17;;
75316;SDS011;63913;51.492;10.368;2024-01-11T14:08:50;24.95;;;7.95;;
75316;SDS011;63913;51.492;10.368;2024-01-11T14:11:15;20.40;;;7.80;;
75316;SDS011;63913;51.492;10.368;2024-01-11T14:13:41;21.55;;;7.30;;
75316;SDS011;63913;51.492;10.368;2024-01-11T14:16:06;21.10;;;7.43;;
75316;SDS011;63913;51.492;10.368;2024-01-11T14:18:33;25.25;;;8.50;;